Time;durP1;ratioP1;P1;durP2;ratioP2;P2;SDS_P1;SDS_P2;PMS_P1;PMS_P2;Temp;Humidity;BMP_temperature;BMP_pressure;BME280_temperature;BME280_humidity;BME280_pressure;Samples;Min_cycle;Max_cycle;Signal;HPM_P1;HPM_P2
2022/07/23 00:00:20;;;;;;;6.67;6.07;;;26.50;96.00;;;;;;5012834;28;20192;-70
2022/07/23 00:02:45;;;;;;;7.00;5.63;;;26.40;96.20;;;;;;5015923;28;20883;-68
2022/07/23 00:05:11;;;;;;;6.23;5.73;;;26.20;96.40;;;;;;5016045;28;20395;-69
2022/07/23 00:07:37;;;;;;;6.80;6.20;;;26.20;96.80;;;;;;5047936;22;20819;-69
2022/07/23 00:10:04;;;;;;;9.40;5.80;;;26.30;96.50;;;;;;5035643;28;20612;-67
2022/07/23 00:12:29;;;;;;;6.03;5.53;;;26.30;96.50;;;;;;5035957;28;20481;-69
2022/07/23 00:14:55;;;;;;;6.97;6.27;;;26.30;96.30;;;;;;5035964;28;20890;-69
2022/07/23 00:17:20;;;;;;;5.30;4.90;;;26.30;95.90;;;;;;5036137;28;20218;-70
2022/07/23 00:19:46;;;;;;;5.60;5.20;;;26.40;96.00;;;;;;5035890;28;20170;-69
2022/07/23 00:22:12;;;;;;;5.20;4.80;;;26.20;96.50;;;;;;5036176;28;20325;-69
2022/07/23 00:24:37;;;;;;;5.40;5.00;;;26.10;96.60;;;;;;5035376;28;20162;-69
2022/07/23 00:27:03;;;;;;;5.40;4.90;;;26.20;96.40;;;;;;5035693;28;20183;-69
2022/07/23 00:29:29;;;;;;;5.27;4.87;;;26.20;96.60;;;;;;5035886;28;20616;-68
2022/07/23 00:31:54;;;;;;;8.07;4.90;;;26.20;96.10;;;;;;5029670;28;20410;-69
2022/07/23 00:34:20;;;;;;;5.00;4.57;;;26.00;96.00;;;;;;5016096;28;20168;-69
2022/07/23 00:36:45;;;;;;;4.80;4.30;;;26.00;96.60;;;;;;4998079;28;20599;-68
2022/07/23 00:39:11;;;;;;;5.00;4.50;;;25.90;96.40;;;;;;5030334;28;20160;-70
2022/07/23 00:41:37;;;;;;;4.67;4.30;;;25.80;97.40;;;;;;5035495;28;20156;-69
2022/07/23 00:44:23;;;;;;;5.80;5.27;;;25.90;98.20;;;;;;5017685;28;20502;-69
2022/07/23 00:46:56;;;;;;;5.33;4.83;;;25.90;99.70;;;;;;5035105;28;20631;-69
2022/07/23 00:49:23;;;;;;;5.43;5.03;;;25.50;99.90;;;;;;5035481;28;20406;-69
2022/07/23 00:51:50;;;;;;;5.93;5.33;;;25.40;99.90;;;;;;5033532;28;20512;-69
2022/07/23 00:54:17;;;;;;;5.60;5.10;;;25.20;99.90;;;;;;5035369;28;20414;-69
2022/07/23 00:56:46;;;;;;;5.60;5.10;;;25.20;99.90;;;;;;5035173;28;20503;-69
2022/07/23 00:59:13;;;;;;;5.30;4.90;;;25.20;99.90;;;;;;5035235;28;20410;-69
2022/07/23 01:01:39;;;;;;;5.60;5.10;;;25.20;99.90;;;;;;5035345;28;20398;-70
2022/07/23 01:04:05;;;;;;;5.27;4.87;;;25.00;99.90;;;;;;5034996;28;20390;-69
2022/07/23 01:06:36;;;;;;;6.10;5.60;;;25.00;99.90;;;;;;5034307;28;20944;-69
2022/07/23 01:09:03;;;;;;;5.80;4.17;;;24.90;99.90;;;;;;5035126;28;20238;-69
2022/07/23 01:11:30;;;;;;;6.47;5.97;;;25.00;99.90;;;;;;5035178;28;20402;-70
2022/07/23 01:13:56;;;;;;;5.30;4.90;;;24.90;99.90;;;;;;5034385;28;20406;-69
2022/07/23 01:16:22;;;;;;;4.77;4.37;;;24.90;99.90;;;;;;5034994;28;20523;-69
2022/07/23 01:18:47;;;;;;;5.10;4.70;;;24.90;99.90;;;;;;5034941;28;20183;-70
2022/07/23 01:21:17;;;;;;;5.10;4.70;;;25.00;99.90;;;;;;5034173;28;20210;-70
2022/07/23 01:23:42;;;;;;;5.10;4.70;;;25.10;99.90;;;;;;5033265;28;20155;-69
2022/07/23 01:26:08;;;;;;;5.40;4.90;;;25.00;99.90;;;;;;5034570;28;20456;-69
2022/07/23 01:28:33;;;;;;;5.70;5.20;;;24.90;99.90;;;;;;5034680;28;20194;-68
2022/07/23 01:30:59;;;;;;;4.77;4.47;;;24.90;99.90;;;;;;5034629;28;20200;-70
2022/07/23 01:33:24;;;;;;;4.77;4.37;;;24.80;99.90;;;;;;5034666;28;20164;-69
2022/07/23 01:35:50;;;;;;;5.70;5.20;;;24.90;99.90;;;;;;5034505;28;20213;-69
2022/07/23 01:38:16;;;;;;;5.40;5.00;;;25.00;99.90;;;;;;5034728;28;20532;-69
2022/07/23 01:40:41;;;;;;;5.00;4.50;;;25.00;99.90;;;;;;5016503;28;20159;-69
2022/07/23 01:43:07;;;;;;;5.30;4.80;;;24.80;99.90;;;;;;5033291;28;20162;-69
2022/07/23 01:45:32;;;;;;;4.43;4.10;;;24.90;99.90;;;;;;5033986;28;20616;-69
2022/07/23 01:47:58;;;;;;;5.13;4.63;;;25.00;99.90;;;;;;5034111;28;20183;-68
2022/07/23 01:50:23;;;;;;;5.43;4.80;;;25.10;99.90;;;;;;5034259;28;20246;-69
2022/07/23 01:52:49;;;;;;;5.70;5.13;;;25.20;99.90;;;;;;5034487;28;20667;-69
2022/07/23 01:55:15;;;;;;;5.70;5.20;;;25.00;99.90;;;;;;5016410;28;20175;-69
2022/07/23 01:57:40;;;;;;;4.83;4.43;;;25.00;99.90;;;;;;5016297;28;20210;-69
2022/07/23 02:00:06;;;;;;;5.63;5.23;;;25.10;99.90;;;;;;5032205;28;20186;-68
2022/07/23 02:02:32;;;;;;;5.90;5.40;;;24.80;99.90;;;;;;5034713;28;20163;-69
2022/07/23 02:04:57;;;;;;;5.20;4.80;;;24.60;99.90;;;;;;5033960;28;20464;-69
2022/07/23 02:07:23;;;;;;;5.17;4.77;;;24.60;99.90;;;;;;5015992;28;20203;-69
2022/07/23 02:09:49;;;;;;;5.60;4.73;;;24.60;99.90;;;;;;5034147;28;20170;-69
2022/07/23 02:12:14;;;;;;;5.60;5.10;;;24.60;99.90;;;;;;5034035;28;20167;-69
2022/07/23 02:14:40;;;;;;;5.60;5.10;;;24.60;99.90;;;;;;5033763;28;20168;-70
2022/07/23 02:17:05;;;;;;;5.70;5.20;;;24.60;99.90;;;;;;5033596;28;20226;-68
2022/07/23 02:19:32;;;;;;;6.10;5.60;;;24.80;99.90;;;;;;4999766;28;20541;-69
2022/07/23 02:21:57;;;;;;;5.60;5.10;;;24.70;99.90;;;;;;5033874;28;20670;-69
2022/07/23 02:24:23;;;;;;;4.70;4.30;;;24.60;99.90;;;;;;5032802;28;20398;-70
2022/07/23 02:26:48;;;;;;;5.30;4.90;;;24.40;99.90;;;;;;5033479;28;20180;-70
2022/07/23 02:29:14;;;;;;;7.20;4.87;;;24.30;99.90;;;;;;5030628;28;21387;-69
2022/07/23 02:31:40;;;;;;;5.87;5.47;;;24.20;99.90;;;;;;5013893;28;20179;-70
2022/07/23 02:34:06;;;;;;;4.90;4.60;;;24.30;99.90;;;;;;5013578;28;20172;-68
2022/07/23 02:36:32;;;;;;;5.17;4.77;;;24.20;99.90;;;;;;5011374;28;20595;-69
2022/07/23 02:38:58;;;;;;;5.67;5.17;;;24.00;99.90;;;;;;5005124;28;20406;-69
2022/07/23 02:41:24;;;;;;;4.90;4.50;;;24.00;99.90;;;;;;5013617;28;20251;-69
2022/07/23 02:43:49;;;;;;;4.90;4.50;;;24.00;99.90;;;;;;5013831;28;20621;-68
2022/07/23 02:46:15;;;;;;;5.17;4.77;;;23.90;99.90;;;;;;5013187;28;20226;-68
2022/07/23 02:48:41;;;;;;;4.90;4.60;;;23.90;99.90;;;;;;5013411;28;20415;-68
2022/07/23 02:51:06;;;;;;;5.30;4.87;;;23.90;99.90;;;;;;5013348;28;20199;-69
2022/07/23 02:53:32;;;;;;;5.33;4.80;;;23.90;99.90;;;;;;5013768;28;20196;-68
2022/07/23 02:55:57;;;;;;;5.87;5.37;;;23.90;99.90;;;;;;5013359;28;20159;-69
2022/07/23 02:58:24;;;;;;;6.37;5.07;;;24.10;99.90;;;;;;5013495;28;20250;-68
2022/07/23 03:00:50;;;;;;;4.90;4.50;;;24.10;99.90;;;;;;5013015;28;20213;-68
2022/07/23 03:03:16;;;;;;;5.40;5.00;;;24.10;99.90;;;;;;5013388;28;20790;-68
2022/07/23 03:05:41;;;;;;;4.90;4.50;;;24.10;99.90;;;;;;5013320;28;20163;-70
2022/07/23 03:08:07;;;;;;;6.13;5.63;;;24.20;99.90;;;;;;5012967;28;20253;-69
2022/07/23 03:10:32;;;;;;;6.30;5.80;;;24.20;99.90;;;;;;5013402;28;20628;-70
2022/07/23 03:12:58;;;;;;;5.20;4.80;;;24.20;99.90;;;;;;5013567;28;20322;-70
2022/07/23 03:15:23;;;;;;;5.77;5.27;;;24.30;99.90;;;;;;5012964;28;20164;-70
2022/07/23 03:17:49;;;;;;;5.00;4.60;;;24.30;99.90;;;;;;5013168;28;20196;-69
2022/07/23 03:20:15;;;;;;;5.60;5.10;;;24.40;99.90;;;;;;5013143;28;20199;-69
2022/07/23 03:22:40;;;;;;;5.57;5.17;;;24.40;99.90;;;;;;5013507;28;20172;-69
2022/07/23 03:25:06;;;;;;;6.20;5.70;;;24.40;99.90;;;;;;5013223;28;20271;-69
2022/07/23 03:27:32;;;;;;;6.10;5.60;;;24.30;99.90;;;;;;5013130;28;20194;-69
2022/07/23 03:29:59;;;;;;;5.43;5.03;;;24.20;99.90;;;;;;5019549;28;20477;-70
2022/07/23 03:32:25;;;;;;;7.87;6.30;;;24.10;99.90;;;;;;5032818;28;20185;-70
2022/07/23 03:34:51;;;;;;;5.67;5.27;;;24.00;99.90;;;;;;5032781;28;20408;-69
2022/07/23 03:37:18;;;;;;;6.13;5.73;;;23.90;99.90;;;;;;5036914;28;20452;-69
2022/07/23 03:39:43;;;;;;;5.50;5.10;;;23.90;99.90;;;;;;5036943;28;20902;-70
2022/07/23 03:42:09;;;;;;;5.67;5.17;;;24.00;99.90;;;;;;5036676;28;20402;-70
2022/07/23 03:44:36;;;;;;;5.57;5.10;;;24.00;99.90;;;;;;5036399;28;20164;-69
2022/07/23 03:47:02;;;;;;;5.90;5.30;;;23.90;99.90;;;;;;5036428;28;20682;-70
2022/07/23 03:49:28;;;;;;;6.70;5.50;;;23.70;99.90;;;;;;5036483;28;20425;-68
2022/07/23 03:51:54;;;;;;;6.17;5.67;;;23.60;99.90;;;;;;5037037;28;20844;-69
2022/07/23 03:54:19;;;;;;;6.40;5.90;;;23.60;99.90;;;;;;5036709;28;20628;-68
2022/07/23 03:56:45;;;;;;;6.10;5.50;;;23.60;99.90;;;;;;5036233;28;20554;-68
2022/07/23 03:59:11;;;;;;;6.37;5.73;;;23.60;99.90;;;;;;5036557;28;20611;-68
2022/07/23 04:01:36;;;;;;;7.03;6.40;;;23.60;99.90;;;;;;5035827;28;20684;-70
2022/07/23 04:04:02;;;;;;;6.93;6.43;;;23.40;99.90;;;;;;5036246;28;20247;-70
2022/07/23 04:06:28;;;;;;;6.73;6.13;;;23.30;99.90;;;;;;5036075;28;20769;-69
2022/07/23 04:08:54;;;;;;;6.77;6.17;;;23.30;99.90;;;;;;5036215;28;20406;-68
2022/07/23 04:11:20;;;;;;;6.53;6.03;;;23.50;99.90;;;;;;5036373;28;20892;-69
2022/07/23 04:13:46;;;;;;;6.30;5.80;;;23.60;99.90;;;;;;5036097;28;20250;-69
2022/07/23 04:16:12;;;;;;;6.83;6.23;;;23.60;99.90;;;;;;5034077;28;20174;-69
2022/07/23 04:18:37;;;;;;;6.63;6.03;;;23.60;99.90;;;;;;5035912;28;20175;-68
2022/07/23 04:21:03;;;;;;;13.70;6.50;;;23.60;99.90;;;;;;5035946;28;20168;-69
2022/07/23 04:23:29;;;;;;;5.67;5.17;;;23.60;99.90;;;;;;5035845;28;20163;-70
2022/07/23 04:25:54;;;;;;;6.63;6.07;;;23.50;99.90;;;;;;5035828;28;20167;-69
2022/07/23 04:28:20;;;;;;;6.40;5.90;;;23.50;99.90;;;;;;5035702;28;20254;-69
2022/07/23 04:30:45;;;;;;;5.83;5.33;;;23.60;99.90;;;;;;5015165;28;20183;-68
2022/07/23 04:33:11;;;;;;;7.23;6.53;;;23.70;99.90;;;;;;5016444;28;20168;-70
2022/07/23 04:35:37;;;;;;;7.07;6.47;;;23.90;99.90;;;;;;5015919;28;20164;-70
2022/07/23 04:38:03;;;;;;;6.13;5.73;;;24.00;99.90;;;;;;5015639;28;20235;-69
2022/07/23 04:40:29;;;;;;;6.73;5.93;;;24.10;99.90;;;;;;4998186;28;20164;-69
2022/07/23 04:42:55;;;;;;;6.70;6.20;;;24.00;99.90;;;;;;5015687;28;20427;-69
2022/07/23 04:45:21;;;;;;;6.93;6.23;;;24.00;99.90;;;;;;5015648;28;20395;-68
2022/07/23 04:47:47;;;;;;;7.20;6.60;;;24.00;99.90;;;;;;5034530;28;20426;-69
2022/07/23 04:50:12;;;;;;;6.50;6.00;;;24.10;99.90;;;;;;5035745;28;20199;-69
2022/07/23 04:52:38;;;;;;;6.60;6.00;;;24.00;99.90;;;;;;5035642;28;20171;-69
2022/07/23 04:55:04;;;;;;;7.43;6.77;;;24.00;99.90;;;;;;5035285;28;20199;-69
2022/07/23 04:57:30;;;;;;;6.53;5.87;;;23.90;99.90;;;;;;5035232;28;20280;-69
2022/07/23 04:59:55;;;;;;;6.63;6.13;;;24.10;99.90;;;;;;5034900;28;20398;-69
2022/07/23 05:02:21;;;;;;;6.47;6.00;;;24.30;99.90;;;;;;5035254;28;20619;-70
2022/07/23 05:04:47;;;;;;;5.80;5.40;;;24.10;99.90;;;;;;5035267;28;20266;-69
2022/07/23 05:07:12;;;;;;;5.90;5.37;;;24.10;99.90;;;;;;5034246;28;20231;-71
2022/07/23 05:09:38;;;;;;;5.90;5.50;;;24.20;99.90;;;;;;5034967;28;20643;-69
2022/07/23 05:12:04;;;;;;;6.40;5.90;;;24.40;99.90;;;;;;5035094;28;20159;-68
2022/07/23 05:14:29;;;;;;;6.17;5.60;;;24.70;99.90;;;;;;5035212;28;20171;-70
2022/07/23 05:16:55;;;;;;;6.60;6.00;;;24.90;99.90;;;;;;5034520;28;20458;-68
2022/07/23 05:19:21;;;;;;;6.40;5.80;;;24.60;99.90;;;;;;5035397;28;20159;-69
2022/07/23 05:21:47;;;;;;;6.73;6.13;;;24.50;99.90;;;;;;5033332;28;20168;-68
2022/07/23 05:24:13;;;;;;;6.50;5.93;;;24.40;99.90;;;;;;5034745;28;20409;-68
2022/07/23 05:26:38;;;;;;;6.23;5.83;;;24.40;99.90;;;;;;5016796;28;20202;-68
2022/07/23 05:29:04;;;;;;;7.30;6.70;;;24.30;99.90;;;;;;5034699;28;20163;-69
2022/07/23 05:31:29;;;;;;;6.27;5.77;;;24.30;99.90;;;;;;5002705;28;20168;-69
2022/07/23 05:33:55;;;;;;;7.10;6.40;;;24.30;99.90;;;;;;5014760;28;20171;-69
2022/07/23 05:36:21;;;;;;;6.17;5.60;;;24.30;99.90;;;;;;5014905;28;20515;-69
2022/07/23 05:38:46;;;;;;;7.80;6.63;;;24.50;99.90;;;;;;5014502;28;20579;-68
2022/07/23 05:41:12;;;;;;;6.83;6.23;;;24.60;99.90;;;;;;5014657;28;20168;-69
2022/07/23 05:43:37;;;;;;;7.10;6.40;;;24.60;99.90;;;;;;5014918;28;20170;-68
2022/07/23 05:46:03;;;;;;;6.80;6.30;;;24.70;99.90;;;;;;5014344;28;20159;-68
2022/07/23 05:48:29;;;;;;;7.50;6.90;;;24.50;99.90;;;;;;5032265;28;20202;-69
2022/07/23 05:50:55;;;;;;;7.80;6.80;;;24.60;99.90;;;;;;5034450;28;20175;-67
2022/07/23 05:53:20;;;;;;;6.93;6.10;;;24.80;99.90;;;;;;5034057;28;20405;-69
2022/07/23 05:55:46;;;;;;;6.83;6.33;;;24.70;99.90;;;;;;5016554;28;20198;-68
2022/07/23 05:58:12;;;;;;;6.90;6.30;;;24.50;99.90;;;;;;5031691;28;20198;-69
2022/07/23 06:00:37;;;;;;;6.50;6.00;;;24.60;99.90;;;;;;5031181;28;20564;-68
2022/07/23 06:03:03;;;;;;;7.17;6.47;;;24.80;99.90;;;;;;5005719;28;20169;-70
2022/07/23 06:05:28;;;;;;;6.40;5.90;;;24.90;99.90;;;;;;4994774;28;20161;-69
2022/07/23 06:07:54;;;;;;;7.13;5.80;;;25.10;99.90;;;;;;4994353;28;20220;-69
2022/07/23 06:10:20;;;;;;;6.13;5.63;;;25.30;99.90;;;;;;4994617;28;20196;-69
2022/07/23 06:12:46;;;;;;;7.07;6.47;;;25.20;99.90;;;;;;4994329;28;20192;-68
2022/07/23 06:15:11;;;;;;;6.57;6.07;;;25.30;99.90;;;;;;4994468;28;20638;-69
2022/07/23 06:17:41;;;;;;;6.10;5.60;;;25.40;99.90;;;;;;4994546;28;20509;-69
2022/07/23 06:20:08;;;;;;;6.87;6.27;;;25.60;99.90;;;;;;5011920;28;20163;-69
2022/07/23 06:22:35;;;;;;;6.20;5.70;;;25.60;99.90;;;;;;5033637;28;20402;-70
2022/07/23 06:27:28;;;;;;;8.23;7.50;;;25.60;99.90;;;;;;5011401;28;20450;-67
2022/07/23 06:29:54;;;;;;;7.67;7.07;;;25.70;99.90;;;;;;4998153;28;20883;-67
2022/07/23 06:32:20;;;;;;;6.80;6.20;;;25.80;99.90;;;;;;4994082;28;20175;-67
2022/07/23 06:34:46;;;;;;;7.87;7.03;;;25.70;99.90;;;;;;4994202;28;20169;-67
2022/07/23 06:37:11;;;;;;;7.53;6.83;;;25.60;99.90;;;;;;4993485;28;20459;-67
2022/07/23 06:39:37;;;;;;;7.10;6.50;;;25.70;99.90;;;;;;4993614;28;20645;-68
2022/07/23 06:42:03;;;;;;;7.07;6.47;;;25.80;99.90;;;;;;4993450;28;20176;-68
2022/07/23 06:44:29;;;;;;;7.47;6.87;;;26.00;99.90;;;;;;4993806;28;20168;-69
2022/07/23 06:46:54;;;;;;;7.30;6.60;;;26.00;99.90;;;;;;4993623;28;20185;-67
2022/07/23 06:49:20;;;;;;;8.07;7.30;;;25.90;99.90;;;;;;4993766;28;20173;-68
2022/07/23 06:51:45;;;;;;;7.37;6.67;;;25.50;99.90;;;;;;4993668;28;20681;-67
2022/07/23 06:54:11;;;;;;;6.67;5.70;;;25.40;99.90;;;;;;5009264;28;20188;-68
2022/07/23 06:56:37;;;;;;;7.17;6.47;;;25.20;99.90;;;;;;5013032;28;20282;-68
2022/07/23 06:59:03;;;;;;;7.47;6.87;;;25.10;99.90;;;;;;5013265;28;20635;-68
2022/07/23 07:01:28;;;;;;;6.53;6.03;;;25.00;99.90;;;;;;5013342;28;20671;-68
2022/07/23 07:03:54;;;;;;;6.93;6.33;;;25.10;99.90;;;;;;5013368;28;20164;-68
2022/07/23 07:06:20;;;;;;;7.00;6.40;;;25.00;99.90;;;;;;5012807;28;20777;-68
2022/07/23 07:08:45;;;;;;;7.23;6.63;;;25.20;99.90;;;;;;5013262;28;20164;-68
2022/07/23 07:11:11;;;;;;;7.53;6.83;;;25.20;99.90;;;;;;5012370;28;20187;-69
2022/07/23 07:13:37;;;;;;;6.80;6.20;;;24.90;99.90;;;;;;5013062;28;20613;-69
2022/07/23 07:16:04;;;;;;;8.20;7.10;;;24.80;99.90;;;;;;5013114;28;20195;-69
2022/07/23 07:18:29;;;;;;;7.00;6.40;;;24.90;99.90;;;;;;5013227;28;20845;-69
2022/07/23 07:20:56;;;;;;;7.37;6.67;;;25.00;99.90;;;;;;5013173;28;20410;-68
2022/07/23 07:23:22;;;;;;;6.93;6.20;;;24.90;99.90;;;;;;5012885;28;20207;-68
2022/07/23 07:25:47;;;;;;;6.93;6.33;;;24.80;99.90;;;;;;5011104;28;20451;-68
2022/07/23 07:28:13;;;;;;;7.70;7.00;;;24.50;99.90;;;;;;5013263;28;20164;-68
2022/07/23 07:30:39;;;;;;;6.80;6.30;;;24.30;99.90;;;;;;5013431;28;20164;-68
2022/07/23 07:33:04;;;;;;;6.67;6.17;;;24.20;99.90;;;;;;5013341;28;20204;-67
2022/07/23 07:35:32;;;;;;;7.47;6.70;;;24.10;99.90;;;;;;5013255;28;20237;-68
2022/07/23 07:37:58;;;;;;;7.37;6.77;;;24.40;99.90;;;;;;5013083;28;20200;-68
2022/07/23 07:40:24;;;;;;;6.83;6.20;;;24.60;99.90;;;;;;5012069;28;20422;-68
2022/07/23 07:42:53;;;;;;;7.40;6.80;;;24.70;99.90;;;;;;5012474;28;20403;-68
2022/07/23 07:45:24;;;;;;;7.97;7.27;;;24.80;99.90;;;;;;5012602;28;20156;-68
2022/07/23 07:47:51;;;;;;;7.60;7.00;;;24.50;99.90;;;;;;5013198;28;20417;-70
2022/07/23 07:50:17;;;;;;;7.33;6.73;;;24.40;99.90;;;;;;5012616;28;20421;-68
2022/07/23 07:52:42;;;;;;;7.70;7.10;;;24.20;99.90;;;;;;5012549;28;20399;-68
2022/07/23 07:55:09;;;;;;;8.03;7.23;;;24.20;99.90;;;;;;5010946;28;20266;-68
2022/07/23 07:57:35;;;;;;;7.43;6.83;;;24.30;99.90;;;;;;5012174;28;20188;-68
2022/07/23 08:00:01;;;;;;;8.10;7.50;;;24.20;99.90;;;;;;5012734;28;20775;-68
2022/07/23 08:02:27;;;;;;;7.30;6.70;;;24.20;99.90;;;;;;4994698;28;20414;-68
2022/07/23 08:04:52;;;;;;;8.20;7.50;;;24.00;99.90;;;;;;5012491;28;20214;-67
2022/07/23 08:07:18;;;;;;;7.47;6.87;;;24.10;99.90;;;;;;5012520;28;20188;-68
2022/07/23 08:09:44;;;;;;;6.73;6.17;;;24.50;99.90;;;;;;5013484;28;20176;-68
2022/07/23 08:12:09;;;;;;;7.70;7.10;;;24.60;99.90;;;;;;5012178;28;20914;-68
2022/07/23 08:14:35;;;;;;;7.10;6.20;;;24.50;99.90;;;;;;5012608;28;20172;-69
2022/07/23 08:17:00;;;;;;;7.33;6.70;;;24.70;99.90;;;;;;5012496;28;20196;-69
2022/07/23 08:19:26;;;;;;;7.10;6.50;;;24.80;99.90;;;;;;5012840;28;20529;-69
2022/07/23 08:21:52;;;;;;;7.00;6.13;;;24.70;99.90;;;;;;5012366;28;20175;-69
2022/07/23 08:24:17;;;;;;;6.90;6.30;;;25.00;99.90;;;;;;4996335;28;20251;-69
2022/07/23 08:26:43;;;;;;;7.00;6.40;;;25.20;99.90;;;;;;5011452;28;20221;-69
2022/07/23 08:29:09;;;;;;;11.37;10.27;;;24.90;99.90;;;;;;5015941;28;20522;-68
2022/07/23 08:31:35;;;;;;;6.30;5.70;;;25.00;99.90;;;;;;5015942;28;20230;-69
2022/07/23 08:34:02;;;;;;;6.60;5.97;;;25.00;99.90;;;;;;5015765;28;20887;-69
2022/07/23 08:36:28;;;;;;;7.23;6.40;;;25.20;99.90;;;;;;5015948;28;20196;-68
2022/07/23 08:38:54;;;;;;;6.73;6.23;;;24.90;99.90;;;;;;5015592;28;20458;-68
2022/07/23 08:41:20;;;;;;;6.83;6.33;;;25.00;99.90;;;;;;5014963;28;20403;-69
2022/07/23 08:43:46;;;;;;;6.93;6.23;;;25.30;99.90;;;;;;5015415;28;20779;-69
2022/07/23 08:46:13;;;;;;;7.13;6.63;;;25.40;99.90;;;;;;5015511;28;20450;-68
2022/07/23 08:48:39;;;;;;;7.10;6.50;;;25.30;99.90;;;;;;5014368;28;20172;-68
2022/07/23 08:51:06;;;;;;;6.67;6.07;;;25.30;99.90;;;;;;5015762;28;20410;-69
2022/07/23 08:53:35;;;;;;;6.87;6.27;;;25.40;99.90;;;;;;5011659;28;20655;-69
2022/07/23 08:56:03;;;;;;;7.17;6.53;;;25.30;99.90;;;;;;4985832;28;20448;-69
2022/07/23 08:58:30;;;;;;;7.80;7.10;;;25.40;99.90;;;;;;4992538;28;20529;-69
2022/07/23 09:00:56;;;;;;;7.40;6.80;;;25.60;99.90;;;;;;4995653;28;20400;-69
2022/07/23 09:03:23;;;;;;;7.27;6.77;;;25.70;99.90;;;;;;4995532;28;20393;-69
2022/07/23 09:05:53;;;;;;;6.80;6.20;;;25.90;99.90;;;;;;4995474;28;20431;-69
2022/07/23 09:08:24;;;;;;;7.30;6.70;;;26.20;99.90;;;;;;4995744;28;20446;-69
2022/07/23 09:10:59;;;;;;;6.50;6.00;;;26.50;99.90;;;;;;4993951;28;20384;-69
2022/07/23 09:13:45;;;;;;;6.77;6.27;;;26.80;99.60;;;;;;5014963;28;20405;-68
2022/07/23 09:16:14;;;;;;;7.13;6.53;;;26.90;99.40;;;;;;5014803;28;20430;-67
2022/07/23 09:18:51;;;;;;;6.27;5.73;;;27.00;99.00;;;;;;4997034;28;20446;-68
2022/07/23 09:21:29;;;;;;;7.17;6.50;;;27.20;98.20;;;;;;5014652;28;20380;-68
2022/07/23 09:24:04;;;;;;;7.00;6.33;;;27.30;98.40;;;;;;5015125;28;20379;-68
2022/07/23 09:26:40;;;;;;;8.10;6.50;;;27.50;97.50;;;;;;5013978;28;20499;-68
2022/07/23 09:29:18;;;;;;;6.47;5.97;;;27.70;97.50;;;;;;4997732;28;20399;-68
2022/07/23 09:31:48;;;;;;;6.30;5.80;;;28.10;96.50;;;;;;5014967;28;20383;-68
2022/07/23 09:34:13;;;;;;;6.57;5.97;;;28.40;95.70;;;;;;5014213;28;20398;-69
2022/07/23 09:36:40;;;;;;;6.33;5.87;;;28.20;95.30;;;;;;5014801;28;20517;-68
2022/07/23 09:39:06;;;;;;;6.30;5.80;;;28.50;95.10;;;;;;4980675;28;20664;-68
2022/07/23 09:41:42;;;;;;;6.37;5.87;;;28.50;94.50;;;;;;5013941;28;20407;-68
2022/07/23 09:44:25;;;;;;;6.90;6.30;;;28.10;95.20;;;;;;5014299;28;20404;-69
2022/07/23 09:46:58;;;;;;;6.40;5.97;;;28.00;95.00;;;;;;5014429;28;20430;-69
2022/07/23 09:49:25;;;;;;;6.07;5.60;;;28.00;94.70;;;;;;5014287;28;20427;-69
2022/07/23 09:51:57;;;;;;;7.90;7.20;;;27.90;94.90;;;;;;5012656;28;20468;-69
2022/07/23 09:54:33;;;;;;;7.00;6.50;;;27.70;94.90;;;;;;5014489;28;20426;-69
2022/07/23 09:57:03;;;;;;;7.00;6.33;;;27.20;95.30;;;;;;5014019;28;20446;-68
2022/07/23 09:59:33;;;;;;;11.00;6.33;;;27.10;95.90;;;;;;5014365;28;20387;-69
2022/07/23 10:01:59;;;;;;;6.80;6.23;;;27.30;95.90;;;;;;5014052;28;20407;-69
2022/07/23 10:04:26;;;;;;;6.50;5.90;;;27.70;96.10;;;;;;5014486;28;20911;-68
2022/07/23 10:06:55;;;;;;;6.97;6.40;;;27.80;95.00;;;;;;5012522;28;20493;-68
2022/07/23 10:09:33;;;;;;;6.30;5.80;;;28.20;94.40;;;;;;5013514;28;20418;-68
2022/07/23 10:12:25;;;;;;;7.10;6.43;;;28.20;94.50;;;;;;5014237;28;20398;-68
2022/07/23 10:14:50;;;;;;;7.17;6.53;;;27.90;95.30;;;;;;5012657;28;20912;-68
2022/07/23 10:17:17;;;;;;;6.23;5.63;;;28.10;94.80;;;;;;5013975;28;20464;-68
2022/07/23 10:19:42;;;;;;;6.30;5.87;;;27.90;95.30;;;;;;5013921;28;20400;-68
2022/07/23 10:22:11;;;;;;;7.47;6.87;;;27.90;96.10;;;;;;5013964;28;20466;-67
2022/07/23 10:25:10;;;;;;;6.90;6.30;;;27.80;95.20;;;;;;5012042;28;20167;-68
2022/07/23 10:28:14;;;;;;;7.23;6.53;;;27.80;95.00;;;;;;4975114;28;20408;-68
2022/07/23 10:30:49;;;;;;;6.93;6.43;;;28.20;95.00;;;;;;4974799;28;20529;-68
2022/07/23 10:33:38;;;;;;;6.43;5.83;;;28.90;94.10;;;;;;4973274;28;20392;-68
2022/07/23 10:36:14;;;;;;;6.43;5.83;;;29.20;92.60;;;;;;4975022;28;20425;-67
2022/07/23 10:38:52;;;;;;;7.70;6.97;;;29.30;92.80;;;;;;4973833;28;20436;-68
2022/07/23 10:41:33;;;;;;;6.60;6.10;;;28.70;92.50;;;;;;4973569;28;20480;-68
2022/07/23 10:44:25;;;;;;;6.37;5.87;;;28.70;92.60;;;;;;4973139;28;20409;-68
2022/07/23 10:49:44;;;;;;;5.93;5.43;;;28.30;92.40;;;;;;4974944;28;20387;-68
2022/07/23 10:52:25;;;;;;;7.10;6.20;;;28.60;92.10;;;;;;4974127;28;20445;-68
2022/07/23 10:54:57;;;;;;;5.67;5.17;;;28.70;90.80;;;;;;4973567;28;20952;-68
2022/07/23 10:57:25;;;;;;;5.70;5.30;;;29.10;90.10;;;;;;4974373;28;20452;-68
2022/07/23 11:02:30;;;;;;;6.00;5.40;;;29.10;89.60;;;;;;4974645;28;20409;-68
2022/07/23 11:05:00;;;;;;;6.13;5.73;;;29.20;90.30;;;;;;4974283;28;20412;-68
2022/07/23 11:07:26;;;;;;;6.80;5.97;;;29.30;89.90;;;;;;4974320;28;20420;-68
2022/07/23 11:09:53;;;;;;;6.50;6.00;;;29.60;89.60;;;;;;4973816;28;20981;-68
2022/07/23 11:12:19;;;;;;;5.90;5.50;;;29.90;88.50;;;;;;4974255;28;20497;-68
2022/07/23 11:15:10;;;;;;;7.60;6.50;;;29.30;90.00;;;;;;4984413;28;20409;-68
2022/07/23 11:17:53;;;;;;;7.20;6.50;;;29.20;90.80;;;;;;5013477;28;20176;-69
2022/07/23 11:20:22;;;;;;;6.17;5.77;;;29.80;90.60;;;;;;5013904;28;20387;-68
2022/07/23 11:22:54;;;;;;;7.10;6.50;;;29.60;90.10;;;;;;5013242;28;20472;-69
2022/07/23 11:25:22;;;;;;;6.00;5.50;;;29.90;88.80;;;;;;5012794;28;20804;-68
2022/07/23 11:27:50;;;;;;;6.67;5.97;;;30.40;88.90;;;;;;5011839;28;20925;-68
2022/07/23 11:30:27;;;;;;;5.83;5.43;;;30.80;87.90;;;;;;5013411;28;20430;-68
2022/07/23 11:33:14;;;;;;;6.57;6.07;;;30.80;86.40;;;;;;5013633;28;20399;-68
2022/07/23 11:35:45;;;;;;;6.50;6.00;;;31.40;85.80;;;;;;5012481;28;20525;-69
2022/07/23 11:38:13;;;;;;;7.17;6.50;;;31.60;84.80;;;;;;5012916;28;20474;-69
2022/07/23 11:40:39;;;;;;;6.60;6.10;;;31.80;83.60;;;;;;5013293;28;20399;-69
2022/07/23 11:43:07;;;;;;;6.40;5.90;;;31.60;83.00;;;;;;5013375;28;20481;-68
2022/07/23 11:45:38;;;;;;;6.90;6.20;;;31.20;85.20;;;;;;5013523;28;20442;-69
2022/07/23 11:48:06;;;;;;;6.20;5.67;;;30.40;87.80;;;;;;5002929;28;20424;-69
2022/07/23 11:50:32;;;;;;;6.60;6.00;;;30.80;87.00;;;;;;4987520;28;20423;-69
2022/07/23 11:52:57;;;;;;;5.83;5.43;;;32.10;84.80;;;;;;4996372;28;20423;-69
2022/07/23 11:55:23;;;;;;;6.40;5.80;;;33.20;82.00;;;;;;4993532;28;20447;-69
2022/07/23 11:57:51;;;;;;;6.03;5.60;;;34.30;76.90;;;;;;4996770;28;20192;-70
2022/07/23 12:00:22;;;;;;;6.73;6.23;;;34.20;76.30;;;;;;4997905;28;20169;-69
2022/07/23 12:02:53;;;;;;;5.93;5.43;;;34.40;75.50;;;;;;4997574;28;20396;-69
2022/07/23 12:05:26;;;;;;;6.70;6.10;;;34.30;74.30;;;;;;5001892;28;20383;-69
2022/07/23 12:07:54;;;;;;;6.50;5.97;;;35.30;71.90;;;;;;5007647;28;20412;-70
2022/07/23 12:10:26;;;;;;;5.90;5.50;;;34.20;72.80;;;;;;5006144;28;20407;-69
2022/07/23 12:13:01;;;;;;;6.10;5.60;;;34.10;72.60;;;;;;5005684;28;20876;-70
2022/07/23 12:15:38;;;;;;;6.80;6.27;;;33.60;74.30;;;;;;5018608;28;20430;-69
2022/07/23 12:18:04;;;;;;;7.13;6.37;;;33.10;74.40;;;;;;5025956;28;20852;-68
2022/07/23 12:20:39;;;;;;;6.50;6.00;;;33.00;76.20;;;;;;5026547;28;20891;-69
2022/07/23 12:23:07;;;;;;;7.47;6.77;;;35.00;71.30;;;;;;5021955;28;20727;-69
2022/07/23 12:28:21;;;;;;;7.03;6.43;;;34.40;72.60;;;;;;5019778;28;20470;-69
2022/07/23 12:30:54;;;;;;;7.07;6.40;;;35.00;69.60;;;;;;5016477;28;20387;-69
2022/07/23 12:33:27;;;;;;;6.37;5.87;;;35.20;68.70;;;;;;5014953;28;20533;-69
2022/07/23 12:36:01;;;;;;;6.73;6.03;;;35.10;67.30;;;;;;5016539;28;20501;-71
2022/07/23 12:38:35;;;;;;;6.70;6.10;;;34.20;67.60;;;;;;5016289;28;20445;-71
2022/07/23 12:41:01;;;;;;;6.57;6.07;;;33.20;69.50;;;;;;5015878;28;20391;-70
2022/07/23 12:43:46;;;;;;;6.10;5.70;;;33.40;70.40;;;;;;5015852;28;20398;-71
2022/07/23 12:46:21;;;;;;;6.80;6.30;;;33.40;69.50;;;;;;5016017;28;20184;-69
2022/07/23 12:48:49;;;;;;;6.77;5.83;;;33.60;70.00;;;;;;5016102;28;20421;-70
2022/07/23 12:51:27;;;;;;;8.30;7.60;;;33.80;70.40;;;;;;5015816;28;20482;-71
2022/07/23 12:54:07;;;;;;;6.93;6.43;;;33.80;70.80;;;;;;5015878;28;20870;-70
2022/07/23 12:56:34;;;;;;;7.13;6.53;;;33.40;70.40;;;;;;5021638;28;20453;-70
2022/07/23 12:59:10;;;;;;;6.63;6.10;;;33.60;70.40;;;;;;5035451;28;20409;-71